AirNav   Air Wisconsin pilot careers
 
 553 users online  

0II7 Frost Field Airport
Greenfield, Indiana, USA

GOING TO GREENFIELD?


FAA INFORMATION EFFECTIVE 07 DECEMBER 2017

Location

FAA Identifier: 0II7
Lat/Long: 39-47-44.1540N / 085-47-09.9220W
39-47.735900N / 085-47.165367W
39.7955983 / -85.7860894
(estimated)
Elevation: 900 ft. / 274 m (estimated)
Variation: 02W (1985)
Time zone: UTC -5 (UTC -4 during Daylight Saving Time)
Zip code: 46140

Airport Operations

Airport use: Private use. Permission required prior to landing
Activation date: 07/1982
Control tower: no
ARTCC: INDIANAPOLIS CENTER
FSS: TERRE HAUTE FLIGHT SERVICE STATION
OR LOCAL CALL 244-3316.
Attendance: UNATNDD
Segmented circle: no

Airport Communications

WX AWOS-3 at MQJ (6 nm NW): 124.175 (317-335-3037)
WX ASOS at GEZ (13 nm S): 121.55 (317-398-0246)
WX AWOS-3 at UMP (15 nm NW): 119.375 (317-842-3911)
WX AWOS-3 at 8A4 (17 nm W): 118.250 (317-955-3160)
WX AWOS-3P at HFY (17 nm SW): 118.525 (317-882-5862)

Nearby radio navigation aids

VOR radial/distance  VOR name  Freq  Var
SHBr009/9.9SHELBYVILLE VOR/DME112.0001E
VHPr091/26.8BRICKYARD VORTAC116.3001E
MIEr217/32.0MUNCIE VOR/DME114.4003W

 
NDB name  Hdg/Dist  Freq  Var  ID
METROPOLITAN128/14.933803WUMP ..- -- .--.
NEW CASTLE259/22.138502WUWL ..- .-- .-..
BATESVILLE323/36.425405WHLB .... .-.. -...

Airport Services

Runway Information

Runway N/S

Dimensions: 2500 x 100 ft. / 762 x 30 m
Surface: turf
RUNWAY N  RUNWAY S
Traffic pattern: leftright
Obstructions: none150 ft. pline, 800 ft. from runway
ADDL 500 FT TOWER 2,000 FT SW OF S RWY/RWY S ADDL - 3 TELEPHONE TOWERS APP 200 FT TALL OR SHORTER - 2500 FT SOUTH OF RWY.

Airport Ownership and Management from official FAA records

Ownership: Privately-owned
Owner: ROBERT E. FROST
784 N. FRANKLIN
GREENFIELD, IN 46140
Phone 317-462-4050
CELL 317-413-7472
Manager: ROBERT E. FROST
784 N. FRANKLIN
GREENFIELD, IN 46140
Phone 317-462-4050

Airport Operational Statistics

Aircraft based on the field: 5
Single engine airplanes: 5
    

Instrument Procedures

There are no published instrument procedures at 0II7.

Some nearby airports with instrument procedures:

KMQJ - Indianapolis Regional Airport (6 nm NW)
KGEZ - Shelbyville Municipal Airport (13 nm S)
KUMP - Indianapolis Metropolitan Airport (15 nm NW)
8A4 - Indianapolis Downtown Heliport (17 nm W)
KHFY - Indy South Greenwood Airport (17 nm SW)
 
Loc | Ops | Rwys | IFR | FBO | Links
Com | Nav | Svcs | Stats | Notes


 
Area around 0II7 (Frost Field Airport)
 
Road maps at: MapQuest Bing Google
 
Aerial photo
No photo
 
Sectional chart

 
Airport distance calculator
Flying to Frost Field Airport? Find the distance to fly.

From to 0II7

Sunrise and sunset
Times for 11-Dec-2017
 Local
(UTC-5)
 Zulu
(UTC)
Morning civil twilight07:2512:25
Sunrise07:5512:55
Sunset17:1822:18
Evening civil twilight17:4822:48

Current date and time
Zulu (UTC)  11-Dec-2017 11:54:06
Local (UTC-5)  11-Dec-2017 06:54:06
 
METAR
KMQJ 
6nm NW 
111135Z AUTO 17003KT 10SM SCT095 M05/M05 A3006 RMK AO1
KGEZ 
13nm S 
111053Z AUTO 13005KT 10SM CLR M06/M08 A3006 RMK AO2 SLP189 T10611083
KHFY 
17nm SW 
111135Z AUTO 20003KT 10SM SCT100 M02/M04 A3007 RMK AO2 T10171040
TAF
KIND 
23nm W 
110822Z 1108/1212 23003KT P6SM SKC FM111200 00000KT P6SM BKN110 FM111600 19006KT P6SM BKN200 FM120200 26005KT P6SM BKN090 FM120600 31008KT P6SM BKN015 FM121100 32011G23KT P6SM BKN035
NOTAMs
Click for the latest NOTAMs
NOTAMs are issued by the DoD/FAA and will open in a separate window not controlled by AirNav.

 

 
 

Would you like to see your business listed on this page?

 If your business provides an interesting product or service to pilots, flight crews, aircraft, or users of the Frost Field Airport, you should consider listing it here.  To start the listing process, click on the button below
 
Add a business
 

Other Pages about Frost Field Airport

Update a link
 
Copyright © AirNav, LLC. All rights reserved. Privacy Policy  Contact